createdAt,value
2023-07-20T00:00:53.871Z,43.66
2023-07-20T00:01:53.997Z,43.66
2023-07-20T00:02:53.994Z,43.67
2023-07-20T00:03:54.044Z,43.61
2023-07-20T00:04:54.018Z,43.63
2023-07-20T00:05:54.083Z,43.63
2023-07-20T00:06:54.149Z,43.58
2023-07-20T00:07:54.171Z,43.64
2023-07-20T00:08:54.192Z,43.60
2023-07-20T00:09:54.194Z,43.59
2023-07-20T00:10:54.230Z,43.58
2023-07-20T00:11:54.248Z,43.58
2023-07-20T00:12:54.310Z,43.57
2023-07-20T00:13:54.306Z,43.57
2023-07-20T00:14:54.334Z,43.55
2023-07-20T00:15:54.321Z,43.55
2023-07-20T00:16:54.409Z,43.55
2023-07-20T00:17:54.464Z,43.55
2023-07-20T00:18:54.349Z,43.52
2023-07-20T00:19:54.382Z,43.54
2023-07-20T00:20:54.406Z,43.52
2023-07-20T00:21:54.410Z,43.51
2023-07-20T00:22:54.485Z,43.50
2023-07-20T00:23:54.455Z,43.51
2023-07-20T00:24:54.477Z,43.49
2023-07-20T00:25:54.512Z,43.47
2023-07-20T00:26:54.580Z,43.49
2023-07-20T00:27:54.526Z,43.49
2023-07-20T00:28:54.556Z,43.44
2023-07-20T00:29:54.558Z,43.47
2023-07-20T00:30:54.763Z,43.44
2023-07-20T00:31:54.610Z,43.42
2023-07-20T00:32:54.683Z,43.43
2023-07-20T00:33:54.647Z,43.42
2023-07-20T00:34:54.672Z,43.38
2023-07-20T00:35:54.690Z,43.40
2023-07-20T00:36:54.719Z,43.39
2023-07-20T00:37:54.722Z,43.38
2023-07-20T00:38:54.743Z,43.37
2023-07-20T00:39:54.764Z,43.36
2023-07-20T00:40:54.786Z,43.35
2023-07-20T00:41:54.784Z,43.39
2023-07-20T00:42:54.809Z,43.35
2023-07-20T00:43:54.834Z,43.35
2023-07-20T00:44:54.856Z,43.34
2023-07-20T00:45:54.893Z,43.30
2023-07-20T00:46:55.039Z,43.29
2023-07-20T00:47:54.940Z,43.31
2023-07-20T00:48:54.998Z,43.29
2023-07-20T00:49:54.959Z,43.29
2023-07-20T00:50:55.008Z,43.27
2023-07-20T00:51:55.045Z,43.27
2023-07-20T00:52:55.109Z,43.27
2023-07-20T00:53:55.146Z,43.28
2023-07-20T00:54:55.176Z,43.26
2023-07-20T00:55:55.216Z,43.25
2023-07-20T00:56:55.268Z,43.27
2023-07-20T00:57:55.325Z,43.24
2023-07-20T00:58:55.362Z,43.22
2023-07-20T00:59:55.398Z,43.21
2023-07-20T01:00:55.447Z,43.22
2023-07-20T01:01:55.498Z,43.20
2023-07-20T01:02:55.652Z,43.24
2023-07-20T01:03:55.647Z,43.22
2023-07-20T01:04:55.618Z,43.19
2023-07-20T01:05:55.679Z,43.22
2023-07-20T01:06:55.744Z,43.21
2023-07-20T01:07:55.763Z,43.17
2023-07-20T01:08:55.807Z,43.20
2023-07-20T01:09:55.846Z,43.18
2023-07-20T01:10:55.885Z,43.20
2023-07-20T01:11:55.927Z,43.16
2023-07-20T01:12:55.968Z,43.16
2023-07-20T01:13:56.034Z,43.18
2023-07-20T01:14:56.062Z,43.18
2023-07-20T01:15:56.145Z,43.17
2023-07-20T01:16:56.168Z,43.17
2023-07-20T01:17:56.221Z,43.20
2023-07-20T01:18:56.229Z,43.20
2023-07-20T01:19:56.309Z,43.18
2023-07-20T01:20:56.322Z,43.16
2023-07-20T01:21:56.376Z,43.14
2023-07-20T01:22:56.536Z,43.16
2023-07-20T01:23:56.467Z,43.17
2023-07-20T01:24:56.467Z,43.16
2023-07-20T01:25:56.474Z,43.17
2023-07-20T01:26:56.498Z,43.18
2023-07-20T01:27:56.505Z,43.15
2023-07-20T01:28:56.534Z,43.17
2023-07-20T01:29:56.561Z,43.18
2023-07-20T01:30:56.575Z,43.14
2023-07-20T01:31:56.628Z,43.15
2023-07-20T01:32:56.642Z,43.14
2023-07-20T01:33:56.633Z,43.14
2023-07-20T01:34:56.653Z,43.12
2023-07-20T01:35:56.665Z,43.11
2023-07-20T01:36:56.687Z,43.09
2023-07-20T01:37:56.721Z,43.10
2023-07-20T01:38:56.743Z,43.10
2023-07-20T01:39:56.775Z,43.11
2023-07-20T01:40:56.777Z,43.10
2023-07-20T01:41:56.830Z,43.09
2023-07-20T01:42:56.839Z,43.08
2023-07-20T01:43:56.854Z,43.08
2023-07-20T01:44:56.871Z,43.10
2023-07-20T01:45:57.009Z,43.06
2023-07-20T01:46:56.944Z,43.07
2023-07-20T01:47:57.021Z,43.07
2023-07-20T01:48:57.032Z,43.05
2023-07-20T01:49:57.078Z,43.07
2023-07-20T01:50:57.144Z,43.03
2023-07-20T01:51:57.187Z,43.04
2023-07-20T01:52:57.228Z,43.02
2023-07-20T01:53:57.297Z,43.01
2023-07-20T01:54:57.319Z,43.01
2023-07-20T01:55:57.379Z,42.97
2023-07-20T01:56:57.406Z,43.01
2023-07-20T01:57:57.460Z,43.00
2023-07-20T01:58:57.507Z,42.98
2023-07-20T01:59:57.580Z,42.99
2023-07-20T02:00:57.705Z,42.97
2023-07-20T02:01:57.653Z,42.96
2023-07-20T02:02:57.770Z,42.96
2023-07-20T02:03:57.755Z,42.95
2023-07-20T02:04:57.806Z,42.97
2023-07-20T02:05:57.848Z,42.96
2023-07-20T02:06:57.905Z,42.94
2023-07-20T02:07:57.936Z,42.95
2023-07-20T02:08:58.000Z,42.94
2023-07-20T02:09:58.016Z,42.93
2023-07-20T02:10:58.083Z,42.94
2023-07-20T02:11:58.111Z,42.93
2023-07-20T02:12:58.148Z,42.92
2023-07-20T02:13:58.230Z,42.89
2023-07-20T02:14:58.254Z,42.90
2023-07-20T02:15:58.296Z,42.91
2023-07-20T02:16:58.326Z,42.89
2023-07-20T02:17:58.407Z,42.91
2023-07-20T02:18:58.444Z,42.88
2023-07-20T02:19:58.538Z,42.88
2023-07-20T02:20:58.525Z,42.90
2023-07-20T02:21:58.573Z,42.86
2023-07-20T02:22:58.677Z,42.85
2023-07-20T02:23:58.681Z,42.86
2023-07-20T02:24:58.750Z,42.84
2023-07-20T02:25:58.777Z,42.84
2023-07-20T02:26:58.823Z,42.84
2023-07-20T02:27:58.884Z,42.84
2023-07-20T02:28:58.929Z,42.84
2023-07-20T02:29:58.977Z,42.82
2023-07-20T02:30:59.070Z,42.80
2023-07-20T02:31:59.083Z,42.81
2023-07-20T02:32:59.140Z,42.84
2023-07-20T02:33:59.175Z,42.82
2023-07-20T02:34:59.217Z,42.79
2023-07-20T02:35:59.276Z,42.82
2023-07-20T02:36:59.307Z,42.77
2023-07-20T02:37:59.359Z,42.78
2023-07-20T02:38:59.425Z,42.80
2023-07-20T02:39:59.467Z,42.80
2023-07-20T02:40:59.523Z,42.80
2023-07-20T02:41:59.559Z,42.79
2023-07-20T02:42:59.593Z,42.78
2023-07-20T02:43:59.645Z,42.78
2023-07-20T02:44:59.701Z,42.79
2023-07-20T02:45:59.757Z,42.78
2023-07-20T02:46:59.840Z,42.78
2023-07-20T02:47:59.902Z,42.79
2023-07-20T02:48:59.875Z,42.76
2023-07-20T02:49:59.921Z,42.78
2023-07-20T02:50:59.970Z,42.76
2023-07-20T02:52:00.020Z,42.78
2023-07-20T02:53:00.090Z,42.78
2023-07-20T02:54:00.142Z,42.76
2023-07-20T02:55:00.189Z,42.76
2023-07-20T02:56:00.218Z,42.76
2023-07-20T02:57:00.266Z,42.76
2023-07-20T02:58:00.326Z,42.75
2023-07-20T02:59:00.363Z,42.76
2023-07-20T03:00:00.424Z,42.73
2023-07-20T03:01:00.521Z,42.76
2023-07-20T03:02:00.479Z,42.77
2023-07-20T03:03:00.531Z,42.75
2023-07-20T03:04:00.591Z,42.75
2023-07-20T03:05:00.571Z,42.74
2023-07-20T03:06:00.715Z,42.72
2023-07-20T03:07:00.623Z,42.76
2023-07-20T03:08:00.633Z,42.73
2023-07-20T03:09:00.656Z,42.73
2023-07-20T03:10:00.669Z,42.70
2023-07-20T03:11:00.706Z,42.74
2023-07-20T03:12:00.696Z,42.70
2023-07-20T03:13:00.733Z,42.72
2023-07-20T03:14:00.747Z,42.72
2023-07-20T03:15:00.776Z,42.72
2023-07-20T03:16:00.838Z,42.70
2023-07-20T03:17:00.917Z,42.72
2023-07-20T03:18:01.019Z,42.71
2023-07-20T03:19:01.057Z,42.70
2023-07-20T03:20:01.159Z,42.69
2023-07-20T03:21:01.214Z,42.69
2023-07-20T03:22:01.289Z,42.71
2023-07-20T03:23:01.425Z,42.71
2023-07-20T03:24:01.424Z,42.71
2023-07-20T03:25:01.433Z,42.70
2023-07-20T03:26:01.497Z,42.71
2023-07-20T03:27:01.530Z,42.72
2023-07-20T03:28:01.582Z,42.72
2023-07-20T03:29:01.633Z,42.72
2023-07-20T03:30:01.712Z,42.72
2023-07-20T03:31:01.773Z,42.71
2023-07-20T03:32:01.795Z,42.70
2023-07-20T03:33:01.910Z,42.70
2023-07-20T03:34:01.913Z,42.70
2023-07-20T03:35:01.950Z,42.69
2023-07-20T03:36:02.046Z,42.68
2023-07-20T03:37:02.029Z,42.72
2023-07-20T03:38:02.099Z,42.71
2023-07-20T03:39:02.156Z,42.68
2023-07-20T03:40:02.226Z,42.70
2023-07-20T03:41:02.276Z,42.70
2023-07-20T03:42:02.314Z,42.69
2023-07-20T03:43:02.379Z,42.68
2023-07-20T03:44:02.440Z,42.68
2023-07-20T03:45:02.481Z,42.70
2023-07-20T03:46:02.521Z,42.70
2023-07-20T03:47:02.667Z,42.72
2023-07-20T03:48:02.699Z,42.71
2023-07-20T03:49:02.698Z,42.71
2023-07-20T03:50:02.763Z,42.72
2023-07-20T03:51:02.808Z,42.71
2023-07-20T03:52:02.879Z,42.71
2023-07-20T03:53:02.901Z,42.72
2023-07-20T03:54:02.986Z,42.72
2023-07-20T03:55:03.030Z,42.69
2023-07-20T03:56:03.130Z,42.70
2023-07-20T03:57:03.175Z,42.70
2023-07-20T03:58:03.248Z,42.70
2023-07-20T03:59:03.299Z,42.68
2023-07-20T04:00:03.363Z,42.66
2023-07-20T04:01:03.387Z,42.69
2023-07-20T04:02:03.480Z,42.70
2023-07-20T04:03:03.641Z,42.70
2023-07-20T04:04:03.533Z,42.72
2023-07-20T04:05:03.497Z,42.70
2023-07-20T04:06:03.520Z,42.72
2023-07-20T04:07:03.536Z,42.72
2023-07-20T04:08:03.575Z,42.71
2023-07-20T04:09:03.576Z,42.71
2023-07-20T04:10:03.640Z,42.71
2023-07-20T04:11:03.649Z,42.74
2023-07-20T04:12:03.645Z,42.69
2023-07-20T04:13:03.688Z,42.72
2023-07-20T04:14:03.694Z,42.70
2023-07-20T04:15:03.718Z,42.70
2023-07-20T04:16:03.751Z,42.70
2023-07-20T04:17:03.815Z,42.69
2023-07-20T04:18:03.828Z,42.69
2023-07-20T04:19:03.840Z,42.69
2023-07-20T04:20:03.899Z,42.70
2023-07-20T04:21:03.896Z,42.71
2023-07-20T04:22:03.973Z,42.71
2023-07-20T04:23:04.144Z,42.70
2023-07-20T04:24:04.139Z,42.76
2023-07-20T04:25:04.215Z,42.72
2023-07-20T04:26:04.266Z,42.70
2023-07-20T04:27:04.295Z,42.71
2023-07-20T04:28:04.361Z,42.71
2023-07-20T04:29:04.416Z,42.69
2023-07-20T04:30:04.472Z,42.69
2023-07-20T04:31:04.591Z,42.71
2023-07-20T04:32:04.572Z,42.70
2023-07-20T04:33:04.692Z,42.71
2023-07-20T04:34:04.687Z,42.71
2023-07-20T04:35:04.732Z,42.72
2023-07-20T04:36:04.774Z,42.72
2023-07-20T04:37:04.816Z,42.70
2023-07-20T04:38:04.869Z,42.70
2023-07-20T04:39:06.283Z,42.71
2023-07-20T04:40:04.952Z,42.72
2023-07-20T04:41:04.965Z,42.72
2023-07-20T04:42:04.991Z,42.70
2023-07-20T04:43:04.998Z,42.73
2023-07-20T04:44:05.036Z,42.72
2023-07-20T04:45:05.068Z,42.71
2023-07-20T04:46:05.097Z,42.76
2023-07-20T04:47:05.101Z,42.74
2023-07-20T04:48:05.137Z,42.72
2023-07-20T04:49:05.130Z,42.71
2023-07-20T04:50:05.193Z,42.73
2023-07-20T04:51:05.182Z,42.75
2023-07-20T04:52:05.212Z,42.74
2023-07-20T04:53:05.215Z,42.74
2023-07-20T04:54:05.241Z,42.73
2023-07-20T04:55:05.262Z,42.76
2023-07-20T04:56:05.302Z,42.75
2023-07-20T04:57:05.321Z,42.73
2023-07-20T04:58:05.334Z,42.75
2023-07-20T04:59:05.371Z,42.75
2023-07-20T05:00:05.426Z,42.74
2023-07-20T05:01:05.488Z,42.75
2023-07-20T05:02:05.632Z,42.72
2023-07-20T05:03:05.753Z,42.74
2023-07-20T05:04:05.679Z,42.74
2023-07-20T05:05:05.714Z,42.76
2023-07-20T05:06:05.764Z,42.75
2023-07-20T05:07:05.817Z,42.76
2023-07-20T05:08:05.862Z,42.74
2023-07-20T05:09:05.929Z,42.75
2023-07-20T05:10:05.995Z,42.73
2023-07-20T05:11:06.045Z,42.72
2023-07-20T05:12:06.101Z,42.76
2023-07-20T05:13:06.189Z,42.75
2023-07-20T05:14:06.273Z,42.76
2023-07-20T05:15:06.286Z,42.73
2023-07-20T05:16:06.392Z,42.76
2023-07-20T05:17:06.420Z,42.75
2023-07-20T05:18:06.521Z,42.75
2023-07-20T05:19:06.515Z,42.76
2023-07-20T05:20:06.586Z,42.75
2023-07-20T05:21:06.635Z,42.76
2023-07-20T05:22:06.699Z,42.77
2023-07-20T05:23:06.864Z,42.77
2023-07-20T05:24:06.812Z,42.78
2023-07-20T05:25:06.862Z,42.77
2023-07-20T05:26:06.939Z,42.74
2023-07-20T05:27:06.978Z,42.74
2023-07-20T05:28:07.058Z,42.77
2023-07-20T05:29:07.112Z,42.78
2023-07-20T05:30:07.165Z,42.75
2023-07-20T05:31:07.215Z,42.79
2023-07-20T05:32:07.293Z,42.79
2023-07-20T05:33:07.355Z,42.76
2023-07-20T05:34:07.389Z,42.78
2023-07-20T05:35:07.436Z,42.79
2023-07-20T05:37:26.376Z,42.87
2023-07-20T05:38:26.392Z,42.84
2023-07-20T05:39:26.399Z,42.84
2023-07-20T05:40:26.393Z,42.82
2023-07-20T05:41:26.418Z,42.81
2023-07-20T05:42:26.413Z,42.78
2023-07-20T05:43:26.438Z,42.80
2023-07-20T05:44:26.440Z,42.80
2023-07-20T05:45:26.440Z,42.81
2023-07-20T05:46:28.317Z,42.82
2023-07-20T05:47:27.507Z,42.84
2023-07-20T05:48:26.459Z,42.82
2023-07-20T05:49:26.483Z,42.81
2023-07-20T05:50:26.500Z,42.82
2023-07-20T05:51:26.520Z,42.84
2023-07-20T05:52:26.525Z,42.81
2023-07-20T05:53:26.527Z,42.83
2023-07-20T05:54:26.524Z,42.81
2023-07-20T05:55:26.539Z,42.82
2023-07-20T05:56:26.564Z,42.83
2023-07-20T05:57:26.557Z,42.82
2023-07-20T05:58:26.640Z,42.85
2023-07-20T05:59:26.696Z,42.84
2023-07-20T06:00:26.759Z,42.86
2023-07-20T06:01:26.887Z,42.86
2023-07-20T06:02:26.923Z,42.88
2023-07-20T06:03:27.015Z,42.87
2023-07-20T06:04:27.051Z,42.87
2023-07-20T06:05:29.194Z,42.86
2023-07-20T06:06:27.330Z,42.85
2023-07-20T06:07:27.348Z,42.87
2023-07-20T06:08:27.401Z,42.88
2023-07-20T06:09:27.482Z,42.86
2023-07-20T06:10:27.509Z,42.90
2023-07-20T06:11:27.571Z,42.90
2023-07-20T06:12:27.623Z,42.89
2023-07-20T06:13:27.677Z,42.89
2023-07-20T06:14:27.733Z,42.91
2023-07-20T06:15:27.784Z,42.91
2023-07-20T06:16:27.868Z,42.92
2023-07-20T06:17:27.930Z,42.94
2023-07-20T06:18:27.958Z,42.92
2023-07-20T06:19:27.971Z,42.93
2023-07-20T06:20:27.977Z,42.90
2023-07-20T06:21:28.000Z,42.90
2023-07-20T06:22:28.011Z,42.94
2023-07-20T06:23:28.034Z,42.92
2023-07-20T06:24:28.039Z,42.92
2023-07-20T06:25:28.053Z,42.92
2023-07-20T06:26:28.104Z,42.90
2023-07-20T06:27:29.377Z,42.92
2023-07-20T06:28:28.118Z,42.94
2023-07-20T06:29:28.183Z,42.93
2023-07-20T06:30:28.250Z,42.93
2023-07-20T06:31:28.317Z,42.92
2023-07-20T06:32:28.365Z,42.93
2023-07-20T06:33:28.384Z,42.92
2023-07-20T06:34:28.360Z,42.95
2023-07-20T06:35:28.361Z,42.93
2023-07-20T06:36:28.386Z,42.92
2023-07-20T06:37:28.426Z,42.93
2023-07-20T06:44:28.486Z,42.94
2023-07-20T06:45:28.487Z,42.96
2023-07-20T06:46:28.736Z,42.98
2023-07-20T06:47:28.576Z,42.96
2023-07-20T06:48:28.525Z,42.97
2023-07-20T06:49:28.544Z,42.95
2023-07-20T06:50:28.534Z,42.97
2023-07-20T06:51:28.550Z,42.98
2023-07-20T06:52:28.577Z,42.96
2023-07-20T06:53:28.581Z,42.95
2023-07-20T06:54:28.840Z,42.95
2023-07-20T06:56:29.566Z,42.95
2023-07-20T06:57:28.641Z,42.96
2023-07-20T06:58:28.681Z,42.95
2023-07-20T06:59:28.725Z,42.91
2023-07-20T07:00:28.808Z,42.88
2023-07-20T07:01:29.008Z,42.91
2023-07-20T07:02:28.877Z,42.90
2023-07-20T07:03:28.982Z,42.90
2023-07-20T07:04:29.135Z,42.90
2023-07-20T07:06:30.374Z,42.92
2023-07-20T07:07:29.071Z,42.87
2023-07-20T07:08:29.074Z,42.89
2023-07-20T07:09:29.048Z,42.90
2023-07-20T07:10:29.082Z,42.86
2023-07-20T07:11:29.079Z,42.87
2023-07-20T07:12:29.086Z,42.87
2023-07-20T07:13:29.111Z,42.87
2023-07-20T07:14:29.123Z,42.85
2023-07-20T07:15:29.137Z,42.87
2023-07-20T07:16:29.402Z,42.85
2023-07-20T07:17:29.320Z,42.87
2023-07-20T07:18:29.210Z,42.87
2023-07-20T07:19:29.303Z,42.88
2023-07-20T07:20:29.341Z,42.87
2023-07-20T07:21:29.374Z,42.89
2023-07-20T07:22:29.428Z,42.86
2023-07-20T07:23:29.548Z,42.85
2023-07-20T07:24:30.096Z,42.84
2023-07-20T07:25:29.602Z,42.85
2023-07-20T07:26:29.606Z,42.84
2023-07-20T07:27:29.683Z,42.84
2023-07-20T07:28:29.709Z,42.87
2023-07-20T07:29:30.103Z,42.85
2023-07-20T07:30:30.108Z,42.86
2023-07-20T07:31:29.737Z,42.87
2023-07-20T07:32:29.798Z,42.87
2023-07-20T07:33:29.753Z,42.87
2023-07-20T07:34:29.764Z,42.89
2023-07-20T07:35:29.756Z,42.89
2023-07-20T07:36:29.787Z,42.88
2023-07-20T07:37:31.398Z,42.88
2023-07-20T07:38:53.051Z,42.88
2023-07-20T07:39:34.913Z,42.90
2023-07-20T07:40:29.806Z,43.03
2023-07-20T07:41:29.835Z,42.97
2023-07-20T07:42:29.854Z,43.13
2023-07-20T07:43:29.841Z,42.98
2023-07-20T07:44:29.854Z,42.96
2023-07-20T07:45:29.885Z,42.96
2023-07-20T07:46:29.969Z,43.11
2023-07-20T07:47:29.909Z,43.24
2023-07-20T07:48:29.909Z,43.30
2023-07-20T07:49:29.900Z,43.40
2023-07-20T07:50:29.939Z,43.45
2023-07-20T07:51:29.953Z,43.46
2023-07-20T07:52:29.981Z,43.51
2023-07-20T07:53:30.040Z,43.45
2023-07-20T07:54:29.964Z,43.41
2023-07-20T07:55:29.964Z,43.40
2023-07-20T07:56:30.000Z,43.36
2023-07-20T07:57:30.024Z,43.35
2023-07-20T07:58:30.001Z,43.36
2023-07-20T07:59:30.010Z,43.35
2023-07-20T08:00:30.020Z,43.33
2023-07-20T08:01:30.077Z,43.32
2023-07-20T08:02:30.298Z,43.34
2023-07-20T08:03:30.092Z,43.29
2023-07-20T08:04:30.423Z,43.27
2023-07-20T08:05:30.088Z,43.26
2023-07-20T08:06:30.085Z,43.21
2023-07-20T08:07:30.084Z,43.20
2023-07-20T08:08:30.647Z,43.18
2023-07-20T08:09:30.104Z,43.17
2023-07-20T08:10:30.139Z,43.12
2023-07-20T08:11:30.130Z,43.14
2023-07-20T08:12:30.145Z,43.12
2023-07-20T08:13:30.139Z,43.13
2023-07-20T08:14:30.188Z,43.14
2023-07-20T08:15:30.168Z,43.06
2023-07-20T08:16:30.695Z,43.07
2023-07-20T08:17:30.381Z,43.05
2023-07-20T08:18:30.356Z,43.06
2023-07-20T08:19:30.383Z,43.02
2023-07-20T08:20:30.250Z,43.02
2023-07-20T08:21:30.220Z,43.04
2023-07-20T08:22:30.288Z,42.98
2023-07-20T08:23:30.261Z,42.96
2023-07-20T08:24:30.309Z,42.94
2023-07-20T08:25:30.345Z,42.92
2023-07-20T08:26:30.415Z,42.93
2023-07-20T08:27:30.395Z,42.92
2023-07-20T08:28:30.450Z,42.92
2023-07-20T08:29:30.464Z,42.87
2023-07-20T08:30:30.504Z,42.84
2023-07-20T08:31:30.543Z,42.84
2023-07-20T08:32:30.639Z,42.81
2023-07-20T08:33:30.655Z,42.81
2023-07-20T08:34:32.237Z,42.80
2023-07-20T08:35:30.692Z,42.79
2023-07-20T08:36:31.107Z,42.76
2023-07-20T08:37:30.764Z,42.75
2023-07-20T08:38:30.791Z,42.75
2023-07-20T08:39:30.848Z,42.75
2023-07-20T08:40:30.858Z,42.76
2023-07-20T08:41:30.871Z,42.73
2023-07-20T08:42:30.936Z,42.73
2023-07-20T08:43:30.956Z,42.74
2023-07-20T08:44:30.965Z,42.74
2023-07-20T08:45:31.013Z,42.72
2023-07-20T08:46:31.081Z,42.68
2023-07-20T08:47:31.096Z,42.67
2023-07-20T08:48:31.128Z,42.67
2023-07-20T08:49:31.139Z,42.71
2023-07-20T08:50:31.182Z,42.65
2023-07-20T08:51:31.198Z,42.65
2023-07-20T08:52:31.253Z,42.64
2023-07-20T08:53:31.270Z,42.61
2023-07-20T08:54:31.310Z,42.59
2023-07-20T08:55:31.381Z,42.55
2023-07-20T08:56:31.438Z,42.52
2023-07-20T08:57:31.441Z,42.55
2023-07-20T08:58:31.523Z,42.49
2023-07-20T08:59:31.520Z,42.47
2023-07-20T09:00:31.587Z,42.45
2023-07-20T09:01:31.567Z,42.46
2023-07-20T09:02:31.670Z,42.44
2023-07-20T09:03:31.659Z,42.42
2023-07-20T09:04:32.709Z,42.44
2023-07-20T09:06:32.145Z,42.35
2023-07-20T09:07:31.698Z,42.36
2023-07-20T09:08:31.704Z,42.31
2023-07-20T09:09:31.737Z,42.30
2023-07-20T09:10:31.741Z,42.29
2023-07-20T09:11:31.776Z,42.29
2023-07-20T09:12:31.754Z,42.25
2023-07-20T09:13:31.819Z,42.23
2023-07-20T09:14:31.992Z,42.19
2023-07-20T09:15:31.877Z,42.18
2023-07-20T09:16:31.857Z,42.17
2023-07-20T09:17:31.896Z,42.15
2023-07-20T09:18:31.899Z,42.16
2023-07-20T09:19:31.906Z,42.11
2023-07-20T09:20:31.937Z,42.11
2023-07-20T09:21:31.965Z,42.08
2023-07-20T09:22:32.616Z,42.07
2023-07-20T09:23:32.004Z,42.08
2023-07-20T09:24:32.068Z,42.07
2023-07-20T09:25:32.117Z,42.02
2023-07-20T09:26:32.041Z,41.98
2023-07-20T09:27:32.201Z,41.95
2023-07-20T09:28:32.148Z,41.92
2023-07-20T09:29:32.120Z,41.86
2023-07-20T09:30:32.610Z,41.90
2023-07-20T09:31:40.510Z,41.87
2023-07-20T09:32:35.368Z,41.85
2023-07-20T09:33:32.175Z,41.83
2023-07-20T09:35:41.635Z,41.84
2023-07-20T09:37:32.144Z,41.81
2023-07-20T09:39:33.222Z,41.71
2023-07-20T09:42:35.311Z,41.68
2023-07-20T09:43:32.248Z,41.69
2023-07-20T09:47:32.222Z,41.55
2023-07-20T09:50:33.225Z,41.49
2023-07-20T09:51:32.202Z,41.46
2023-07-20T09:53:32.215Z,41.45
2023-07-20T09:54:32.213Z,41.42
2023-07-20T09:55:32.228Z,41.39
2023-07-20T09:56:32.242Z,41.37
2023-07-20T09:57:32.238Z,41.36
2023-07-20T09:58:32.246Z,41.33
2023-07-20T09:59:32.247Z,41.33
2023-07-20T10:01:32.316Z,41.30
2023-07-20T10:03:33.663Z,41.27
2023-07-20T10:04:32.247Z,41.23
2023-07-20T10:05:32.429Z,41.22
2023-07-20T10:06:32.259Z,41.20
2023-07-20T10:07:32.255Z,41.16
2023-07-20T10:09:32.290Z,41.11
2023-07-20T10:10:32.260Z,41.06
2023-07-20T10:11:32.257Z,41.05
2023-07-20T10:12:32.279Z,41.05
2023-07-20T10:13:32.281Z,41.00
2023-07-20T10:14:32.256Z,40.99
2023-07-20T10:15:32.243Z,41.00
2023-07-20T10:16:32.264Z,41.04
2023-07-20T10:17:32.373Z,41.01
2023-07-20T10:18:32.267Z,40.98
2023-07-20T10:19:32.250Z,40.94
2023-07-20T10:20:33.081Z,40.93
2023-07-20T10:23:32.239Z,40.85
2023-07-20T10:24:32.319Z,40.84
2023-07-20T10:25:32.227Z,40.79
2023-07-20T10:26:33.208Z,40.77
2023-07-20T10:27:32.436Z,40.72
2023-07-20T10:28:32.496Z,40.73
2023-07-20T10:29:32.440Z,40.73
2023-07-20T10:30:32.857Z,40.72
2023-07-20T10:31:32.497Z,40.71
2023-07-20T10:32:32.482Z,40.69
2023-07-20T10:33:32.473Z,40.61
2023-07-20T10:34:32.476Z,40.60
2023-07-20T10:35:32.538Z,40.62
2023-07-20T10:36:32.598Z,40.60
2023-07-20T10:37:32.536Z,40.56
2023-07-20T10:38:32.546Z,40.49
2023-07-20T10:39:32.605Z,40.49
2023-07-20T10:40:32.539Z,40.49
2023-07-20T10:41:32.556Z,40.44
2023-07-20T10:42:32.595Z,40.44
2023-07-20T10:43:32.620Z,40.43
2023-07-20T10:44:32.669Z,40.44
2023-07-20T10:45:32.668Z,40.44
2023-07-20T10:46:32.752Z,40.41
2023-07-20T10:47:32.676Z,40.42
2023-07-20T10:48:32.661Z,40.37
2023-07-20T10:49:32.678Z,40.36
2023-07-20T10:50:32.897Z,40.32
2023-07-20T10:51:34.045Z,40.32
2023-07-20T10:52:32.661Z,40.31
2023-07-20T10:53:32.651Z,40.27
2023-07-20T10:54:34.775Z,40.29
2023-07-20T10:55:32.641Z,40.23
2023-07-20T10:56:32.633Z,40.24
2023-07-20T10:57:32.856Z,40.25
2023-07-20T10:58:32.669Z,40.25
2023-07-20T10:59:33.231Z,40.24
2023-07-20T11:00:32.790Z,40.13
2023-07-20T11:01:33.690Z,40.12
2023-07-20T11:02:32.924Z,40.08
2023-07-20T11:03:36.529Z,40.10
2023-07-20T11:04:33.916Z,40.13
2023-07-20T11:05:32.941Z,40.11
2023-07-20T11:06:32.868Z,40.14
2023-07-20T11:07:32.890Z,40.11
2023-07-20T11:08:33.069Z,40.08
2023-07-20T11:09:32.880Z,40.03
2023-07-20T11:10:32.891Z,39.97
2023-07-20T11:11:32.859Z,40.05
2023-07-20T11:12:32.881Z,39.91
2023-07-20T11:13:32.943Z,39.89
2023-07-20T11:14:33.006Z,39.89
2023-07-20T11:15:33.072Z,39.93
2023-07-20T11:16:33.175Z,39.86
2023-07-20T11:17:33.255Z,39.84
2023-07-20T11:18:33.354Z,39.93
2023-07-20T11:20:33.386Z,39.89
2023-07-20T11:21:33.360Z,39.77
2023-07-20T11:22:33.324Z,39.80
2023-07-20T11:23:33.349Z,39.80
2023-07-20T11:24:33.465Z,39.77
2023-07-20T11:25:33.293Z,39.76
2023-07-20T11:26:33.292Z,39.68
2023-07-20T11:27:33.300Z,39.79
2023-07-20T11:28:33.299Z,39.73
2023-07-20T11:29:34.521Z,39.64
2023-07-20T11:30:33.341Z,39.58
2023-07-20T11:31:33.301Z,39.67
2023-07-20T11:32:33.316Z,39.60
2023-07-20T11:33:33.276Z,39.69
2023-07-20T11:34:33.282Z,39.51
2023-07-20T11:35:33.254Z,39.49
2023-07-20T11:37:33.614Z,39.56
2023-07-20T11:38:33.254Z,39.44
2023-07-20T11:39:33.254Z,39.48
2023-07-20T11:40:33.247Z,39.59
2023-07-20T11:41:33.249Z,39.51
2023-07-20T11:43:33.227Z,39.42
2023-07-20T11:44:33.251Z,39.42
2023-07-20T11:45:33.193Z,39.33
2023-07-20T11:46:33.266Z,39.30
2023-07-20T11:47:33.306Z,39.40
2023-07-20T11:48:33.173Z,39.52
2023-07-20T11:49:35.174Z,39.46
2023-07-20T11:50:33.166Z,39.35
2023-07-20T11:51:33.131Z,39.34
2023-07-20T11:52:33.129Z,39.41
2023-07-20T11:53:33.131Z,39.26
2023-07-20T11:54:33.119Z,39.24
2023-07-20T11:55:33.103Z,39.28
2023-07-20T11:56:33.073Z,39.26
2023-07-20T11:57:33.078Z,39.26
2023-07-20T11:58:33.048Z,39.16
2023-07-20T11:59:33.044Z,39.24
2023-07-20T12:00:33.053Z,39.32
2023-07-20T12:01:33.155Z,39.29
2023-07-20T12:02:33.206Z,39.18
2023-07-20T12:03:33.238Z,39.17
2023-07-20T12:04:33.252Z,39.23
2023-07-20T12:05:35.596Z,39.13
2023-07-20T12:06:34.302Z,39.11
2023-07-20T12:07:33.290Z,39.34
2023-07-20T12:08:33.292Z,39.42
2023-07-20T12:10:33.256Z,39.17
2023-07-20T12:11:33.301Z,39.22
2023-07-20T12:12:33.258Z,39.18
2023-07-20T12:13:33.251Z,38.95
2023-07-20T12:14:33.298Z,39.02
2023-07-20T12:15:33.344Z,39.07
2023-07-20T12:16:33.397Z,38.88
2023-07-20T12:17:35.060Z,38.94
2023-07-20T12:18:33.397Z,38.89
2023-07-20T12:19:33.343Z,39.08
2023-07-20T12:20:33.330Z,39.01
2023-07-20T12:21:33.308Z,38.97
2023-07-20T12:22:33.316Z,39.06
2023-07-20T12:23:33.318Z,39.07
2023-07-20T12:24:33.340Z,38.94
2023-07-20T12:25:33.279Z,38.88
2023-07-20T12:26:33.283Z,38.97
2023-07-20T12:27:33.266Z,38.95
2023-07-20T12:28:33.256Z,38.90
2023-07-20T12:29:33.259Z,38.82
2023-07-20T12:30:33.274Z,38.89
2023-07-20T12:31:35.704Z,38.81
2023-07-20T12:32:33.330Z,38.82
2023-07-20T12:33:33.418Z,38.91
2023-07-20T12:34:33.263Z,38.89
2023-07-20T12:35:33.302Z,38.89
2023-07-20T12:36:33.248Z,38.94
2023-07-20T12:37:33.265Z,38.79
2023-07-20T12:38:33.239Z,38.74
2023-07-20T12:39:33.248Z,38.76
2023-07-20T12:40:33.243Z,38.79
2023-07-20T12:41:33.255Z,38.91
2023-07-20T12:42:33.244Z,38.85
2023-07-20T12:43:33.362Z,38.85
2023-07-20T12:44:33.361Z,38.76
2023-07-20T12:45:33.423Z,38.76
2023-07-20T12:46:33.486Z,38.73
2023-07-20T12:47:33.562Z,38.66
2023-07-20T12:48:33.589Z,38.77
2023-07-20T12:49:33.671Z,38.70
2023-07-20T12:50:33.713Z,38.63
2023-07-20T12:51:33.783Z,38.69
2023-07-20T12:52:33.838Z,38.70
2023-07-20T12:53:33.845Z,38.61
2023-07-20T12:54:33.896Z,38.66
2023-07-20T12:55:33.819Z,38.65
2023-07-20T12:57:33.870Z,38.64
2023-07-20T12:58:33.778Z,38.61
2023-07-20T12:59:33.759Z,38.63
2023-07-20T13:00:33.769Z,38.70
2023-07-20T13:01:33.802Z,38.70
2023-07-20T13:02:33.826Z,38.76
2023-07-20T13:03:34.802Z,38.69
2023-07-20T13:04:33.764Z,38.70
2023-07-20T13:06:35.144Z,38.70
2023-07-20T13:08:33.670Z,38.66
2023-07-20T13:09:33.662Z,38.66
2023-07-20T13:10:33.666Z,38.64
2023-07-20T13:11:33.661Z,38.65
2023-07-20T13:12:33.640Z,38.75
2023-07-20T13:13:34.941Z,38.69
2023-07-20T13:14:33.607Z,38.67
2023-07-20T13:15:33.609Z,38.64
2023-07-20T13:16:33.699Z,38.66
2023-07-20T13:17:33.620Z,38.65
2023-07-20T13:18:33.581Z,38.69
2023-07-20T13:19:33.579Z,38.76
2023-07-20T13:20:33.561Z,38.84
2023-07-20T13:21:33.590Z,38.81
2023-07-20T13:22:33.544Z,38.70
2023-07-20T13:23:33.541Z,38.69
2023-07-20T13:24:33.618Z,38.73
2023-07-20T13:25:33.520Z,38.74
2023-07-20T13:26:33.522Z,38.71